sensor_id;sensor_type;location;lat;lon;timestamp;temperature;humidity
10788;DHT22;5446;50.826;4.380;2023-03-14T00:02:26;11.20;99.90
10788;DHT22;5446;50.826;4.380;2023-03-14T00:04:54;11.20;99.90
10788;DHT22;5446;50.826;4.380;2023-03-14T00:07:21;11.10;99.90
10788;DHT22;5446;50.826;4.380;2023-03-14T00:09:46;11.00;99.90
10788;DHT22;5446;50.826;4.380;2023-03-14T00:12:12;11.00;99.90
10788;DHT22;5446;50.826;4.380;2023-03-14T00:14:39;10.90;99.90
10788;DHT22;5446;50.826;4.380;2023-03-14T00:17:08;10.90;99.90
10788;DHT22;5446;50.826;4.380;2023-03-14T00:19:34;10.80;99.90
10788;DHT22;5446;50.826;4.380;2023-03-14T00:21:59;10.80;99.90
10788;DHT22;5446;50.826;4.380;2023-03-14T00:24:25;10.80;99.90
10788;DHT22;5446;50.826;4.380;2023-03-14T00:26:51;10.80;99.90
10788;DHT22;5446;50.826;4.380;2023-03-14T00:29:17;10.80;99.90
10788;DHT22;5446;50.826;4.380;2023-03-14T00:31:43;10.80;99.90
10788;DHT22;5446;50.826;4.380;2023-03-14T00:34:08;10.80;99.90
10788;DHT22;5446;50.826;4.380;2023-03-14T00:36:34;10.80;99.90
10788;DHT22;5446;50.826;4.380;2023-03-14T00:39:00;10.80;99.90
10788;DHT22;5446;50.826;4.380;2023-03-14T00:41:25;10.80;99.90
10788;DHT22;5446;50.826;4.380;2023-03-14T00:43:52;10.80;99.90
10788;DHT22;5446;50.826;4.380;2023-03-14T00:46:18;10.90;99.90
10788;DHT22;5446;50.826;4.380;2023-03-14T00:48:47;10.90;99.90
10788;DHT22;5446;50.826;4.380;2023-03-14T00:51:13;10.90;99.90
10788;DHT22;5446;50.826;4.380;2023-03-14T00:53:40;10.90;99.90
10788;DHT22;5446;50.826;4.380;2023-03-14T00:56:09;10.90;99.90
10788;DHT22;5446;50.826;4.380;2023-03-14T00:58:35;10.80;99.90
10788;DHT22;5446;50.826;4.380;2023-03-14T01:01:27;10.80;99.90
10788;DHT22;5446;50.826;4.380;2023-03-14T01:03:55;10.70;99.90
10788;DHT22;5446;50.826;4.380;2023-03-14T01:06:23;10.70;99.90
10788;DHT22;5446;50.826;4.380;2023-03-14T01:08:49;10.80;99.90
10788;DHT22;5446;50.826;4.380;2023-03-14T01:11:25;10.80;99.90
10788;DHT22;5446;50.826;4.380;2023-03-14T01:13:51;10.80;99.90
10788;DHT22;5446;50.826;4.380;2023-03-14T01:16:19;10.80;99.90
10788;DHT22;5446;50.826;4.380;2023-03-14T01:18:46;10.80;99.90
10788;DHT22;5446;50.826;4.380;2023-03-14T01:21:33;10.80;99.90
10788;DHT22;5446;50.826;4.380;2023-03-14T01:24:00;10.80;99.90
10788;DHT22;5446;50.826;4.380;2023-03-14T01:26:28;10.80;99.90
10788;DHT22;5446;50.826;4.380;2023-03-14T01:28:55;10.80;99.90
10788;DHT22;5446;50.826;4.380;2023-03-14T01:31:22;10.70;99.90
10788;DHT22;5446;50.826;4.380;2023-03-14T01:33:48;10.60;99.90
10788;DHT22;5446;50.826;4.380;2023-03-14T01:36:14;10.60;99.90
10788;DHT22;5446;50.826;4.380;2023-03-14T01:38:41;10.50;99.90
10788;DHT22;5446;50.826;4.380;2023-03-14T01:41:08;10.40;99.90
10788;DHT22;5446;50.826;4.380;2023-03-14T01:43:37;10.40;99.90
10788;DHT22;5446;50.826;4.380;2023-03-14T01:48:36;10.40;99.90
10788;DHT22;5446;50.826;4.380;2023-03-14T01:51:04;10.40;99.90
10788;DHT22;5446;50.826;4.380;2023-03-14T01:53:31;10.40;99.90
10788;DHT22;5446;50.826;4.380;2023-03-14T01:55:57;10.40;99.90
10788;DHT22;5446;50.826;4.380;2023-03-14T01:58:24;10.30;99.90
10788;DHT22;5446;50.826;4.380;2023-03-14T02:00:53;10.20;99.90
10788;DHT22;5446;50.826;4.380;2023-03-14T02:03:20;10.10;99.90
10788;DHT22;5446;50.826;4.380;2023-03-14T02:05:48;10.00;99.90
10788;DHT22;5446;50.826;4.380;2023-03-14T02:08:19;9.90;99.90
10788;DHT22;5446;50.826;4.380;2023-03-14T02:10:47;9.90;99.90
10788;DHT22;5446;50.826;4.380;2023-03-14T02:13:16;9.80;99.90
10788;DHT22;5446;50.826;4.380;2023-03-14T02:15:42;9.70;99.90
10788;DHT22;5446;50.826;4.380;2023-03-14T02:18:09;9.70;99.90
10788;DHT22;5446;50.826;4.380;2023-03-14T02:20:53;9.60;99.90
10788;DHT22;5446;50.826;4.380;2023-03-14T02:26:25;9.60;99.90
10788;DHT22;5446;50.826;4.380;2023-03-14T02:28:52;9.60;99.90
10788;DHT22;5446;50.826;4.380;2023-03-14T02:31:19;9.50;99.90
10788;DHT22;5446;50.826;4.380;2023-03-14T02:33:46;9.50;99.90
10788;DHT22;5446;50.826;4.380;2023-03-14T02:36:14;9.40;99.90
10788;DHT22;5446;50.826;4.380;2023-03-14T02:39:29;9.40;99.90
10788;DHT22;5446;50.826;4.380;2023-03-14T02:41:47;9.40;99.90
10788;DHT22;5446;50.826;4.380;2023-03-14T02:44:14;9.40;99.90
10788;DHT22;5446;50.826;4.380;2023-03-14T02:46:40;9.40;99.90
10788;DHT22;5446;50.826;4.380;2023-03-14T02:49:13;9.40;99.90
10788;DHT22;5446;50.826;4.380;2023-03-14T02:51:40;9.40;99.90
10788;DHT22;5446;50.826;4.380;2023-03-14T02:54:07;9.40;99.90
10788;DHT22;5446;50.826;4.380;2023-03-14T02:56:33;9.50;99.90
10788;DHT22;5446;50.826;4.380;2023-03-14T02:58:59;9.50;99.90
10788;DHT22;5446;50.826;4.380;2023-03-14T03:01:27;9.50;99.90
10788;DHT22;5446;50.826;4.380;2023-03-14T03:03:53;9.50;99.90
10788;DHT22;5446;50.826;4.380;2023-03-14T03:06:19;9.50;99.90
10788;DHT22;5446;50.826;4.380;2023-03-14T03:08:45;9.60;99.90
10788;DHT22;5446;50.826;4.380;2023-03-14T03:11:10;9.60;99.90
10788;DHT22;5446;50.826;4.380;2023-03-14T03:13:36;9.60;99.90
10788;DHT22;5446;50.826;4.380;2023-03-14T03:16:02;9.60;99.90
10788;DHT22;5446;50.826;4.380;2023-03-14T03:18:28;9.70;99.90
10788;DHT22;5446;50.826;4.380;2023-03-14T03:20:54;9.70;99.90
10788;DHT22;5446;50.826;4.380;2023-03-14T03:23:19;9.70;99.90
10788;DHT22;5446;50.826;4.380;2023-03-14T03:25:51;9.70;99.90
10788;DHT22;5446;50.826;4.380;2023-03-14T03:28:18;9.70;99.90
10788;DHT22;5446;50.826;4.380;2023-03-14T03:30:44;9.80;99.90
10788;DHT22;5446;50.826;4.380;2023-03-14T03:33:10;9.80;99.90
10788;DHT22;5446;50.826;4.380;2023-03-14T03:35:45;9.80;99.90
10788;DHT22;5446;50.826;4.380;2023-03-14T03:38:12;9.80;99.90
10788;DHT22;5446;50.826;4.380;2023-03-14T03:40:38;9.80;99.90
10788;DHT22;5446;50.826;4.380;2023-03-14T03:43:04;9.70;99.90
10788;DHT22;5446;50.826;4.380;2023-03-14T03:45:30;9.70;99.90
10788;DHT22;5446;50.826;4.380;2023-03-14T03:47:55;9.80;99.90
10788;DHT22;5446;50.826;4.380;2023-03-14T03:50:21;9.80;99.90
10788;DHT22;5446;50.826;4.380;2023-03-14T03:52:47;9.80;99.90
10788;DHT22;5446;50.826;4.380;2023-03-14T03:55:13;9.80;99.90
10788;DHT22;5446;50.826;4.380;2023-03-14T03:57:38;9.80;99.90
10788;DHT22;5446;50.826;4.380;2023-03-14T04:00:05;9.80;99.90
10788;DHT22;5446;50.826;4.380;2023-03-14T04:02:31;9.80;99.90
10788;DHT22;5446;50.826;4.380;2023-03-14T04:04:57;9.80;99.90
10788;DHT22;5446;50.826;4.380;2023-03-14T04:07:23;9.80;99.90
10788;DHT22;5446;50.826;4.380;2023-03-14T04:09:49;9.80;99.90
10788;DHT22;5446;50.826;4.380;2023-03-14T04:12:15;9.80;99.90
10788;DHT22;5446;50.826;4.380;2023-03-14T04:14:41;9.80;99.90
10788;DHT22;5446;50.826;4.380;2023-03-14T04:17:07;9.80;99.90
10788;DHT22;5446;50.826;4.380;2023-03-14T04:19:33;9.80;99.90
10788;DHT22;5446;50.826;4.380;2023-03-14T04:21:59;9.80;99.90
10788;DHT22;5446;50.826;4.380;2023-03-14T04:24:25;9.90;99.90
10788;DHT22;5446;50.826;4.380;2023-03-14T04:26:50;9.90;99.90
10788;DHT22;5446;50.826;4.380;2023-03-14T04:29:16;9.90;99.90
10788;DHT22;5446;50.826;4.380;2023-03-14T04:31:42;9.80;99.90
10788;DHT22;5446;50.826;4.380;2023-03-14T04:34:07;9.90;99.90
10788;DHT22;5446;50.826;4.380;2023-03-14T04:36:33;9.90;99.90
10788;DHT22;5446;50.826;4.380;2023-03-14T04:38:59;9.90;99.90
10788;DHT22;5446;50.826;4.380;2023-03-14T04:41:25;9.90;99.90
10788;DHT22;5446;50.826;4.380;2023-03-14T04:43:50;9.90;99.90
10788;DHT22;5446;50.826;4.380;2023-03-14T04:46:16;9.90;99.90
10788;DHT22;5446;50.826;4.380;2023-03-14T04:48:42;9.90;99.90
10788;DHT22;5446;50.826;4.380;2023-03-14T04:51:08;9.90;99.90
10788;DHT22;5446;50.826;4.380;2023-03-14T04:53:34;9.90;99.90
10788;DHT22;5446;50.826;4.380;2023-03-14T04:56:01;9.90;99.90
10788;DHT22;5446;50.826;4.380;2023-03-14T04:58:27;9.90;99.90
10788;DHT22;5446;50.826;4.380;2023-03-14T05:00:52;9.90;99.90
10788;DHT22;5446;50.826;4.380;2023-03-14T05:03:19;9.90;99.90
10788;DHT22;5446;50.826;4.380;2023-03-14T05:05:44;9.90;99.90
10788;DHT22;5446;50.826;4.380;2023-03-14T05:08:10;10.00;99.90
10788;DHT22;5446;50.826;4.380;2023-03-14T05:10:37;10.00;99.90
10788;DHT22;5446;50.826;4.380;2023-03-14T05:13:03;10.00;99.90
10788;DHT22;5446;50.826;4.380;2023-03-14T05:15:30;10.00;99.90
10788;DHT22;5446;50.826;4.380;2023-03-14T05:17:55;10.00;99.90
10788;DHT22;5446;50.826;4.380;2023-03-14T05:20:21;10.00;99.90
10788;DHT22;5446;50.826;4.380;2023-03-14T05:22:47;10.00;99.90
10788;DHT22;5446;50.826;4.380;2023-03-14T05:25:13;10.00;99.90
10788;DHT22;5446;50.826;4.380;2023-03-14T05:27:40;10.00;99.90
10788;DHT22;5446;50.826;4.380;2023-03-14T05:30:06;9.90;99.90
10788;DHT22;5446;50.826;4.380;2023-03-14T05:32:32;9.90;99.90
10788;DHT22;5446;50.826;4.380;2023-03-14T05:34:58;9.90;99.90
10788;DHT22;5446;50.826;4.380;2023-03-14T05:37:28;9.90;99.90
10788;DHT22;5446;50.826;4.380;2023-03-14T05:39:53;9.90;99.90
10788;DHT22;5446;50.826;4.380;2023-03-14T05:42:19;9.90;99.90
10788;DHT22;5446;50.826;4.380;2023-03-14T05:44:45;9.90;99.90
10788;DHT22;5446;50.826;4.380;2023-03-14T05:47:11;9.90;99.90
10788;DHT22;5446;50.826;4.380;2023-03-14T05:49:36;9.90;99.90
10788;DHT22;5446;50.826;4.380;2023-03-14T05:52:02;10.00;99.90
10788;DHT22;5446;50.826;4.380;2023-03-14T05:54:28;10.00;99.90
10788;DHT22;5446;50.826;4.380;2023-03-14T05:56:54;10.00;99.90
10788;DHT22;5446;50.826;4.380;2023-03-14T05:59:19;9.90;99.90
10788;DHT22;5446;50.826;4.380;2023-03-14T06:01:45;10.00;99.90
10788;DHT22;5446;50.826;4.380;2023-03-14T06:04:11;9.90;99.90
10788;DHT22;5446;50.826;4.380;2023-03-14T06:06:37;10.00;99.90
10788;DHT22;5446;50.826;4.380;2023-03-14T06:09:03;10.00;99.90
10788;DHT22;5446;50.826;4.380;2023-03-14T06:11:28;10.00;99.90
10788;DHT22;5446;50.826;4.380;2023-03-14T06:13:54;10.00;99.90
10788;DHT22;5446;50.826;4.380;2023-03-14T06:16:20;10.00;99.90
10788;DHT22;5446;50.826;4.380;2023-03-14T06:18:46;10.00;99.90
10788;DHT22;5446;50.826;4.380;2023-03-14T06:21:15;10.00;99.90
10788;DHT22;5446;50.826;4.380;2023-03-14T06:23:41;10.00;99.90
10788;DHT22;5446;50.826;4.380;2023-03-14T06:26:06;10.10;99.90
10788;DHT22;5446;50.826;4.380;2023-03-14T06:28:32;10.00;99.90
10788;DHT22;5446;50.826;4.380;2023-03-14T06:30:59;10.00;99.90
10788;DHT22;5446;50.826;4.380;2023-03-14T06:33:25;10.00;99.90
10788;DHT22;5446;50.826;4.380;2023-03-14T06:35:51;10.00;99.90
10788;DHT22;5446;50.826;4.380;2023-03-14T06:38:17;10.00;99.90
10788;DHT22;5446;50.826;4.380;2023-03-14T06:40:43;10.00;99.90
10788;DHT22;5446;50.826;4.380;2023-03-14T06:43:09;10.00;99.90
10788;DHT22;5446;50.826;4.380;2023-03-14T06:45:35;10.00;99.90
10788;DHT22;5446;50.826;4.380;2023-03-14T06:48:00;10.00;99.90
10788;DHT22;5446;50.826;4.380;2023-03-14T06:50:27;9.90;99.90
10788;DHT22;5446;50.826;4.380;2023-03-14T06:52:53;9.60;99.90
10788;DHT22;5446;50.826;4.380;2023-03-14T06:55:19;9.20;99.90
10788;DHT22;5446;50.826;4.380;2023-03-14T06:57:46;8.90;99.90
10788;DHT22;5446;50.826;4.380;2023-03-14T07:00:13;8.80;99.90
10788;DHT22;5446;50.826;4.380;2023-03-14T07:02:39;8.60;99.90
10788;DHT22;5446;50.826;4.380;2023-03-14T07:05:06;8.50;99.90
10788;DHT22;5446;50.826;4.380;2023-03-14T07:07:32;8.40;99.90
10788;DHT22;5446;50.826;4.380;2023-03-14T07:09:57;8.30;99.90
10788;DHT22;5446;50.826;4.380;2023-03-14T07:12:23;8.20;99.90
10788;DHT22;5446;50.826;4.380;2023-03-14T07:14:49;8.10;99.90
10788;DHT22;5446;50.826;4.380;2023-03-14T07:17:15;7.80;99.90
10788;DHT22;5446;50.826;4.380;2023-03-14T07:19:40;7.70;99.90
10788;DHT22;5446;50.826;4.380;2023-03-14T07:22:06;7.60;99.90
10788;DHT22;5446;50.826;4.380;2023-03-14T07:24:32;7.40;99.90
10788;DHT22;5446;50.826;4.380;2023-03-14T07:26:58;7.30;99.90
10788;DHT22;5446;50.826;4.380;2023-03-14T07:29:24;7.30;99.90
10788;DHT22;5446;50.826;4.380;2023-03-14T07:31:49;7.30;99.90
10788;DHT22;5446;50.826;4.380;2023-03-14T07:34:15;7.30;99.90
10788;DHT22;5446;50.826;4.380;2023-03-14T07:36:41;7.20;99.90
10788;DHT22;5446;50.826;4.380;2023-03-14T07:39:07;7.30;99.90
10788;DHT22;5446;50.826;4.380;2023-03-14T07:41:33;7.40;99.90
10788;DHT22;5446;50.826;4.380;2023-03-14T07:43:59;7.30;99.90
10788;DHT22;5446;50.826;4.380;2023-03-14T07:46:24;7.30;99.90
10788;DHT22;5446;50.826;4.380;2023-03-14T07:48:50;7.30;99.90
10788;DHT22;5446;50.826;4.380;2023-03-14T07:51:16;7.30;99.90
10788;DHT22;5446;50.826;4.380;2023-03-14T07:53:41;7.30;99.90
10788;DHT22;5446;50.826;4.380;2023-03-14T07:56:09;7.30;99.90
10788;DHT22;5446;50.826;4.380;2023-03-14T07:58:34;7.30;99.90
10788;DHT22;5446;50.826;4.380;2023-03-14T08:01:00;7.40;99.90
10788;DHT22;5446;50.826;4.380;2023-03-14T08:03:26;7.30;99.90
10788;DHT22;5446;50.826;4.380;2023-03-14T08:05:52;7.40;99.90
10788;DHT22;5446;50.826;4.380;2023-03-14T08:08:18;7.50;99.90
10788;DHT22;5446;50.826;4.380;2023-03-14T08:10:45;7.40;99.90
10788;DHT22;5446;50.826;4.380;2023-03-14T08:13:12;7.40;99.90
10788;DHT22;5446;50.826;4.380;2023-03-14T08:15:38;7.50;99.90
10788;DHT22;5446;50.826;4.380;2023-03-14T08:18:04;7.40;99.90
10788;DHT22;5446;50.826;4.380;2023-03-14T08:20:31;7.40;99.90
10788;DHT22;5446;50.826;4.380;2023-03-14T08:22:57;7.40;99.90
10788;DHT22;5446;50.826;4.380;2023-03-14T08:25:24;7.40;99.90
10788;DHT22;5446;50.826;4.380;2023-03-14T08:27:49;7.30;99.90
10788;DHT22;5446;50.826;4.380;2023-03-14T08:30:17;7.20;99.90
10788;DHT22;5446;50.826;4.380;2023-03-14T08:32:43;7.20;99.90
10788;DHT22;5446;50.826;4.380;2023-03-14T08:35:10;7.20;99.90
10788;DHT22;5446;50.826;4.380;2023-03-14T08:37:36;7.20;99.90
10788;DHT22;5446;50.826;4.380;2023-03-14T08:40:04;7.20;99.90
10788;DHT22;5446;50.826;4.380;2023-03-14T08:42:39;7.10;99.90
10788;DHT22;5446;50.826;4.380;2023-03-14T08:45:06;7.00;99.90
10788;DHT22;5446;50.826;4.380;2023-03-14T08:47:32;6.90;99.90
10788;DHT22;5446;50.826;4.380;2023-03-14T08:49:58;6.90;99.90
10788;DHT22;5446;50.826;4.380;2023-03-14T08:52:24;6.80;99.90
10788;DHT22;5446;50.826;4.380;2023-03-14T08:54:50;6.70;99.90
10788;DHT22;5446;50.826;4.380;2023-03-14T08:57:16;6.70;99.90
10788;DHT22;5446;50.826;4.380;2023-03-14T08:59:41;6.60;99.90
10788;DHT22;5446;50.826;4.380;2023-03-14T09:02:10;6.60;99.90
10788;DHT22;5446;50.826;4.380;2023-03-14T09:04:36;6.60;99.90
10788;DHT22;5446;50.826;4.380;2023-03-14T09:07:02;6.60;99.90
10788;DHT22;5446;50.826;4.380;2023-03-14T09:09:29;6.70;99.90
10788;DHT22;5446;50.826;4.380;2023-03-14T09:11:56;6.70;99.90
10788;DHT22;5446;50.826;4.380;2023-03-14T09:14:22;6.80;99.90
10788;DHT22;5446;50.826;4.380;2023-03-14T09:16:48;6.80;99.90
10788;DHT22;5446;50.826;4.380;2023-03-14T09:19:14;6.80;99.90
10788;DHT22;5446;50.826;4.380;2023-03-14T09:21:40;6.70;99.90
10788;DHT22;5446;50.826;4.380;2023-03-14T09:24:06;6.70;99.90
10788;DHT22;5446;50.826;4.380;2023-03-14T09:26:32;6.80;99.90
10788;DHT22;5446;50.826;4.380;2023-03-14T09:28:58;6.70;99.90
10788;DHT22;5446;50.826;4.380;2023-03-14T09:31:24;6.80;99.90
10788;DHT22;5446;50.826;4.380;2023-03-14T09:33:50;7.00;99.90
10788;DHT22;5446;50.826;4.380;2023-03-14T09:36:19;7.10;99.90
10788;DHT22;5446;50.826;4.380;2023-03-14T09:38:45;6.90;99.90
10788;DHT22;5446;50.826;4.380;2023-03-14T09:41:33;6.80;99.90
10788;DHT22;5446;50.826;4.380;2023-03-14T09:44:14;6.80;99.90
10788;DHT22;5446;50.826;4.380;2023-03-14T09:46:44;6.90;99.90
10788;DHT22;5446;50.826;4.380;2023-03-14T09:51:49;6.90;99.90
10788;DHT22;5446;50.826;4.380;2023-03-14T09:54:47;6.90;99.90
10788;DHT22;5446;50.826;4.380;2023-03-14T09:57:20;6.90;99.90
10788;DHT22;5446;50.826;4.380;2023-03-14T09:59:48;6.80;99.90
10788;DHT22;5446;50.826;4.380;2023-03-14T10:02:21;6.80;99.90
10788;DHT22;5446;50.826;4.380;2023-03-14T10:04:49;6.90;99.90
10788;DHT22;5446;50.826;4.380;2023-03-14T10:07:25;6.90;99.90
10788;DHT22;5446;50.826;4.380;2023-03-14T10:09:52;6.90;99.90
10788;DHT22;5446;50.826;4.380;2023-03-14T10:12:19;6.90;99.90
10788;DHT22;5446;50.826;4.380;2023-03-14T10:14:48;7.10;99.90
10788;DHT22;5446;50.826;4.380;2023-03-14T10:17:15;7.10;99.90
10788;DHT22;5446;50.826;4.380;2023-03-14T10:19:59;7.10;99.90
10788;DHT22;5446;50.826;4.380;2023-03-14T10:22:29;7.20;99.90
10788;DHT22;5446;50.826;4.380;2023-03-14T10:25:04;7.30;99.90
10788;DHT22;5446;50.826;4.380;2023-03-14T10:27:35;7.20;99.90
10788;DHT22;5446;50.826;4.380;2023-03-14T10:30:07;7.00;99.90
10788;DHT22;5446;50.826;4.380;2023-03-14T10:32:45;6.90;99.90
10788;DHT22;5446;50.826;4.380;2023-03-14T10:37:56;6.70;99.90
10788;DHT22;5446;50.826;4.380;2023-03-14T10:40:59;6.70;99.90
10788;DHT22;5446;50.826;4.380;2023-03-14T10:43:31;6.70;99.90
10788;DHT22;5446;50.826;4.380;2023-03-14T10:46:00;6.70;99.90
10788;DHT22;5446;50.826;4.380;2023-03-14T10:48:32;6.70;99.90
10788;DHT22;5446;50.826;4.380;2023-03-14T10:51:18;6.70;99.90
10788;DHT22;5446;50.826;4.380;2023-03-14T10:53:48;6.60;99.90
10788;DHT22;5446;50.826;4.380;2023-03-14T10:56:20;6.60;99.90
10788;DHT22;5446;50.826;4.380;2023-03-14T10:58:56;6.60;99.90
10788;DHT22;5446;50.826;4.380;2023-03-14T11:13:06;6.40;99.90
10788;DHT22;5446;50.826;4.380;2023-03-14T11:16:02;6.40;99.90
10788;DHT22;5446;50.826;4.380;2023-03-14T11:21:29;6.30;99.90
10788;DHT22;5446;50.826;4.380;2023-03-14T11:32:08;5.90;99.90
10788;DHT22;5446;50.826;4.380;2023-03-14T11:35:04;5.80;99.90
10788;DHT22;5446;50.826;4.380;2023-03-14T11:37:36;5.70;99.90
10788;DHT22;5446;50.826;4.380;2023-03-14T11:42:39;5.80;99.90
10788;DHT22;5446;50.826;4.380;2023-03-14T11:45:48;5.60;99.90
10788;DHT22;5446;50.826;4.380;2023-03-14T11:48:16;5.50;99.90
10788;DHT22;5446;50.826;4.380;2023-03-14T11:50:44;5.50;99.90
10788;DHT22;5446;50.826;4.380;2023-03-14T11:53:48;5.30;99.90
10788;DHT22;5446;50.826;4.380;2023-03-14T11:59:14;5.30;99.90
10788;DHT22;5446;50.826;4.380;2023-03-14T12:02:05;5.30;99.90
10788;DHT22;5446;50.826;4.380;2023-03-14T12:10:11;5.70;99.90
10788;DHT22;5446;50.826;4.380;2023-03-14T12:12:37;5.60;99.90
10788;DHT22;5446;50.826;4.380;2023-03-14T12:15:04;5.80;99.90
10788;DHT22;5446;50.826;4.380;2023-03-14T12:17:41;5.70;99.90
10788;DHT22;5446;50.826;4.380;2023-03-14T12:22:54;5.60;99.90
10788;DHT22;5446;50.826;4.380;2023-03-14T12:25:26;5.60;99.90
10788;DHT22;5446;50.826;4.380;2023-03-14T12:35:47;5.70;99.90
10788;DHT22;5446;50.826;4.380;2023-03-14T12:41:23;5.80;99.90
10788;DHT22;5446;50.826;4.380;2023-03-14T12:43:51;5.60;99.90
10788;DHT22;5446;50.826;4.380;2023-03-14T12:46:28;5.50;99.90
10788;DHT22;5446;50.826;4.380;2023-03-14T12:49:05;5.50;99.90
10788;DHT22;5446;50.826;4.380;2023-03-14T12:51:38;5.50;99.90
10788;DHT22;5446;50.826;4.380;2023-03-14T12:59:58;5.40;99.90
10788;DHT22;5446;50.826;4.380;2023-03-14T13:02:29;5.30;99.90
10788;DHT22;5446;50.826;4.380;2023-03-14T13:05:25;5.40;99.90
10788;DHT22;5446;50.826;4.380;2023-03-14T13:10:30;5.60;99.90
10788;DHT22;5446;50.826;4.380;2023-03-14T13:13:24;5.60;99.90
10788;DHT22;5446;50.826;4.380;2023-03-14T13:15:59;5.70;99.90
10788;DHT22;5446;50.826;4.380;2023-03-14T13:21:27;5.70;99.90
10788;DHT22;5446;50.826;4.380;2023-03-14T13:24:17;5.60;99.90
10788;DHT22;5446;50.826;4.380;2023-03-14T13:26:46;5.70;99.90
10788;DHT22;5446;50.826;4.380;2023-03-14T13:29:23;5.80;99.90
10788;DHT22;5446;50.826;4.380;2023-03-14T13:31:58;5.70;99.90
10788;DHT22;5446;50.826;4.380;2023-03-14T13:34:26;5.70;99.90
10788;DHT22;5446;50.826;4.380;2023-03-14T13:36:52;5.40;99.90
10788;DHT22;5446;50.826;4.380;2023-03-14T13:39:23;5.60;99.90
10788;DHT22;5446;50.826;4.380;2023-03-14T13:41:51;5.60;99.90
10788;DHT22;5446;50.826;4.380;2023-03-14T13:44:25;5.80;99.90
10788;DHT22;5446;50.826;4.380;2023-03-14T13:46:51;5.80;99.90
10788;DHT22;5446;50.826;4.380;2023-03-14T13:49:24;6.00;99.90
10788;DHT22;5446;50.826;4.380;2023-03-14T13:51:51;6.00;99.90
10788;DHT22;5446;50.826;4.380;2023-03-14T13:54:19;6.00;99.90
10788;DHT22;5446;50.826;4.380;2023-03-14T13:56:45;6.10;99.90
10788;DHT22;5446;50.826;4.380;2023-03-14T13:59:24;6.20;99.90
10788;DHT22;5446;50.826;4.380;2023-03-14T14:01:50;6.10;99.90
10788;DHT22;5446;50.826;4.380;2023-03-14T14:04:19;6.20;99.90
10788;DHT22;5446;50.826;4.380;2023-03-14T14:06:54;6.20;99.90
10788;DHT22;5446;50.826;4.380;2023-03-14T14:09:24;6.30;99.90
10788;DHT22;5446;50.826;4.380;2023-03-14T14:11:57;6.40;99.90
10788;DHT22;5446;50.826;4.380;2023-03-14T14:14:44;6.50;99.90
10788;DHT22;5446;50.826;4.380;2023-03-14T14:17:16;6.70;99.90
10788;DHT22;5446;50.826;4.380;2023-03-14T14:19:44;6.90;99.90
10788;DHT22;5446;50.826;4.380;2023-03-14T14:22:11;7.00;99.90
10788;DHT22;5446;50.826;4.380;2023-03-14T14:24:38;7.00;99.90
10788;DHT22;5446;50.826;4.380;2023-03-14T14:27:16;7.00;99.90
10788;DHT22;5446;50.826;4.380;2023-03-14T14:29:43;7.00;99.90
10788;DHT22;5446;50.826;4.380;2023-03-14T14:32:11;7.10;99.90
10788;DHT22;5446;50.826;4.380;2023-03-14T14:34:45;7.00;99.90
10788;DHT22;5446;50.826;4.380;2023-03-14T14:37:20;7.00;99.90
10788;DHT22;5446;50.826;4.380;2023-03-14T14:39:46;7.00;99.90
10788;DHT22;5446;50.826;4.380;2023-03-14T14:42:16;7.00;99.90
10788;DHT22;5446;50.826;4.380;2023-03-14T14:44:44;7.00;99.90
10788;DHT22;5446;50.826;4.380;2023-03-14T14:47:15;6.90;99.90
10788;DHT22;5446;50.826;4.380;2023-03-14T14:49:41;6.70;99.90
10788;DHT22;5446;50.826;4.380;2023-03-14T14:54:51;6.20;99.90
10788;DHT22;5446;50.826;4.380;2023-03-14T14:57:25;6.10;99.90
10788;DHT22;5446;50.826;4.380;2023-03-14T14:59:55;5.90;99.90
10788;DHT22;5446;50.826;4.380;2023-03-14T15:04:55;5.40;99.90
10788;DHT22;5446;50.826;4.380;2023-03-14T15:07:21;5.30;99.90
10788;DHT22;5446;50.826;4.380;2023-03-14T15:09:46;5.30;99.90
10788;DHT22;5446;50.826;4.380;2023-03-14T15:12:12;5.20;99.90
10788;DHT22;5446;50.826;4.380;2023-03-14T15:14:38;5.40;99.90
10788;DHT22;5446;50.826;4.380;2023-03-14T15:17:08;5.50;99.90
10788;DHT22;5446;50.826;4.380;2023-03-14T15:19:35;5.70;99.90
10788;DHT22;5446;50.826;4.380;2023-03-14T15:22:00;5.80;99.90
10788;DHT22;5446;50.826;4.380;2023-03-14T15:24:26;5.90;99.90
10788;DHT22;5446;50.826;4.380;2023-03-14T15:26:53;6.00;99.90
10788;DHT22;5446;50.826;4.380;2023-03-14T15:29:19;6.10;99.90
10788;DHT22;5446;50.826;4.380;2023-03-14T15:31:44;6.20;99.90
10788;DHT22;5446;50.826;4.380;2023-03-14T15:34:11;6.30;99.90
10788;DHT22;5446;50.826;4.380;2023-03-14T15:36:37;6.40;99.90
10788;DHT22;5446;50.826;4.380;2023-03-14T15:39:05;6.50;99.90
10788;DHT22;5446;50.826;4.380;2023-03-14T15:41:31;6.50;99.90
10788;DHT22;5446;50.826;4.380;2023-03-14T15:43:57;6.60;99.90
10788;DHT22;5446;50.826;4.380;2023-03-14T15:46:23;6.50;99.90
10788;DHT22;5446;50.826;4.380;2023-03-14T15:48:50;6.50;99.90
10788;DHT22;5446;50.826;4.380;2023-03-14T15:51:17;6.50;99.90
10788;DHT22;5446;50.826;4.380;2023-03-14T15:53:43;6.50;99.90
10788;DHT22;5446;50.826;4.380;2023-03-14T15:56:17;6.50;99.90
10788;DHT22;5446;50.826;4.380;2023-03-14T15:58:45;6.40;99.90
10788;DHT22;5446;50.826;4.380;2023-03-14T16:01:15;6.40;99.90
10788;DHT22;5446;50.826;4.380;2023-03-14T16:03:44;6.50;99.90
10788;DHT22;5446;50.826;4.380;2023-03-14T16:06:10;6.40;99.90
10788;DHT22;5446;50.826;4.380;2023-03-14T16:08:36;6.40;99.90
10788;DHT22;5446;50.826;4.380;2023-03-14T16:11:02;6.40;99.90
10788;DHT22;5446;50.826;4.380;2023-03-14T16:13:27;6.40;99.90
10788;DHT22;5446;50.826;4.380;2023-03-14T16:16:02;6.40;99.90
10788;DHT22;5446;50.826;4.380;2023-03-14T16:18:31;6.40;99.90
10788;DHT22;5446;50.826;4.380;2023-03-14T16:20:59;6.40;99.90
10788;DHT22;5446;50.826;4.380;2023-03-14T16:23:25;6.40;99.90
10788;DHT22;5446;50.826;4.380;2023-03-14T16:25:52;6.30;99.90
10788;DHT22;5446;50.826;4.380;2023-03-14T16:28:18;6.30;99.90
10788;DHT22;5446;50.826;4.380;2023-03-14T16:30:44;6.40;99.90
10788;DHT22;5446;50.826;4.380;2023-03-14T16:33:11;6.40;99.90
10788;DHT22;5446;50.826;4.380;2023-03-14T16:35:40;6.40;99.90
10788;DHT22;5446;50.826;4.380;2023-03-14T16:38:06;6.40;99.90
10788;DHT22;5446;50.826;4.380;2023-03-14T16:40:32;6.30;99.90
10788;DHT22;5446;50.826;4.380;2023-03-14T16:42:58;6.40;99.90
10788;DHT22;5446;50.826;4.380;2023-03-14T16:45:24;6.30;99.90
10788;DHT22;5446;50.826;4.380;2023-03-14T16:47:50;6.30;99.90
10788;DHT22;5446;50.826;4.380;2023-03-14T16:50:15;6.40;99.90
10788;DHT22;5446;50.826;4.380;2023-03-14T16:52:41;6.40;99.90
10788;DHT22;5446;50.826;4.380;2023-03-14T16:55:09;6.40;99.90
10788;DHT22;5446;50.826;4.380;2023-03-14T16:57:35;6.50;99.90
10788;DHT22;5446;50.826;4.380;2023-03-14T17:00:01;6.40;99.90
10788;DHT22;5446;50.826;4.380;2023-03-14T17:02:26;6.50;99.90
10788;DHT22;5446;50.826;4.380;2023-03-14T17:04:52;6.50;99.90
10788;DHT22;5446;50.826;4.380;2023-03-14T17:07:18;6.40;99.90
10788;DHT22;5446;50.826;4.380;2023-03-14T17:09:44;6.40;99.90
10788;DHT22;5446;50.826;4.380;2023-03-14T17:12:10;6.40;99.90
10788;DHT22;5446;50.826;4.380;2023-03-14T17:14:35;6.40;99.90
10788;DHT22;5446;50.826;4.380;2023-03-14T17:17:02;6.40;99.90
10788;DHT22;5446;50.826;4.380;2023-03-14T17:19:27;6.30;99.90
10788;DHT22;5446;50.826;4.380;2023-03-14T17:21:53;6.20;99.90